Time;durP1;ratioP1;P1;durP2;ratioP2;P2;SDS_P1;SDS_P2;PMS_P1;PMS_P2;Temp;Humidity;BMP_temperature;BMP_pressure;BME280_temperature;BME280_humidity;BME280_pressure;Samples;Min_cycle;Max_cycle;Signal;HPM_P1;HPM_P2
2022/08/06 00:01:55;;;;;;;8.13;3.80;;;;;;;13.93;70.64;102486.91;5026248;28;20039;-73
2022/08/06 00:04:21;;;;;;;9.70;3.75;;;;;;;14.00;70.65;102493.41;5028494;28;20037;-74
2022/08/06 00:06:46;;;;;;;11.18;4.00;;;;;;;13.86;70.39;102480.47;5042914;28;20036;-74
2022/08/06 00:09:12;;;;;;;7.88;3.40;;;;;;;13.80;70.86;102492.16;5039700;28;20043;-73
2022/08/06 00:11:41;;;;;;;9.55;3.10;;;;;;;13.77;70.94;102508.03;5044061;28;20100;-73
2022/08/06 00:14:07;;;;;;;;;;;;;;;14.15;68.88;102491.47;5045566;28;20029;-74
2022/08/06 00:16:33;;;;;;;8.07;2.97;;;;;;;13.92;70.31;102489.63;5043878;28;19939;-74
2022/08/06 00:18:58;;;;;;;10.40;3.30;;;;;;;13.79;71.10;102495.69;5044973;28;20460;-73
2022/08/06 00:21:23;;;;;;;7.70;3.28;;;;;;;13.86;70.66;102490.06;5032308;28;20363;-73
2022/08/06 00:23:49;;;;;;;8.43;2.90;;;;;;;13.86;71.06;102492.66;5019563;28;20021;-75
2022/08/06 00:26:14;;;;;;;13.35;3.15;;;;;;;13.90;70.95;102507.19;5044309;28;20473;-73
2022/08/06 00:28:40;;;;;;;7.47;2.70;;;;;;;13.93;71.51;102517.38;5038800;28;20445;-73
2022/08/06 00:31:07;;;;;;;9.32;3.17;;;;;;;13.94;70.59;102516.47;5043631;28;20036;-75
2022/08/06 00:33:32;;;;;;;7.90;2.80;;;;;;;13.90;71.32;102512.41;5044685;28;20032;-73
2022/08/06 00:35:58;;;;;;;6.45;2.58;;;;;;;13.72;71.86;102515.31;5044188;28;20032;-73
2022/08/06 00:38:23;;;;;;;6.95;2.67;;;;;;;13.70;71.54;102514.56;5044763;28;20021;-73
2022/08/06 00:40:49;;;;;;;7.03;2.70;;;;;;;13.38;72.48;102521.13;5043532;28;20051;-75
2022/08/06 00:43:15;;;;;;;10.93;3.38;;;;;;;13.56;72.27;102519.91;5044104;28;20468;-73
2022/08/06 00:45:41;;;;;;;7.30;3.33;;;;;;;13.53;71.68;102510.53;5037985;28;20213;-73
2022/08/06 00:48:06;;;;;;;9.07;2.97;;;;;;;13.58;72.14;102528.44;5012900;28;20049;-73
2022/08/06 00:50:32;;;;;;;8.15;3.25;;;;;;;13.48;72.45;102512.59;5029969;28;20392;-74
2022/08/06 00:52:59;;;;;;;8.65;3.20;;;;;;;13.41;71.96;102520.91;5044142;28;20044;-74
2022/08/06 00:55:25;;;;;;;8.60;3.30;;;;;;;13.67;71.30;102527.84;5025047;28;20044;-73
2022/08/06 00:57:51;;;;;;;7.82;3.50;;;;;;;13.47;71.84;102525.72;5020603;28;20056;-73
2022/08/06 01:00:16;;;;;;;8.43;3.08;;;;;;;13.47;72.12;102520.50;5043215;28;20025;-74
2022/08/06 01:02:42;;;;;;;8.82;3.20;;;;;;;13.52;71.66;102528.84;5028635;28;20367;-72
2022/08/06 01:05:07;;;;;;;8.23;3.22;;;;;;;13.51;72.23;102542.81;5036301;28;20036;-74
2022/08/06 01:07:33;;;;;;;10.18;3.17;;;;;;;13.48;72.25;102543.03;5030520;28;20032;-73
2022/08/06 01:09:58;;;;;;;8.32;3.17;;;;;;;13.41;72.56;102537.38;5015850;28;20272;-73
2022/08/06 01:12:25;;;;;;;9.30;3.13;;;;;;;13.45;72.30;102543.22;5009962;28;20037;-73
2022/08/06 01:14:51;;;;;;;8.30;3.22;;;;;;;13.41;72.47;102552.19;5031087;28;20044;-73
2022/08/06 01:17:36;;;;;;;6.90;2.97;;;;;;;13.24;73.73;102551.50;5043435;28;20465;-74
2022/08/06 01:20:20;;;;;;;9.50;2.90;;;;;;;13.38;73.33;102555.00;5042714;28;20040;-74
2022/08/06 01:23:07;;;;;;;6.45;2.60;;;;;;;13.43;72.61;102558.16;5040504;28;20021;-73
2022/08/06 01:26:01;;;;;;;7.78;3.00;;;;;;;13.36;73.23;102569.91;5035248;28;20082;-73
2022/08/06 01:28:33;;;;;;;7.60;2.80;;;;;;;13.22;73.79;102553.41;5030133;28;20403;-73
2022/08/06 01:31:09;;;;;;;7.93;2.60;;;;;;;13.17;73.56;102550.22;5039405;28;20037;-73
2022/08/06 01:33:42;;;;;;;7.38;2.70;;;;;;;13.15;73.52;102567.72;5043609;28;20523;-74
2022/08/06 01:36:14;;;;;;;6.88;2.70;;;;;;;12.98;73.82;102560.16;5027887;28;20064;-73
2022/08/06 01:38:44;;;;;;;10.27;3.00;;;;;;;13.02;74.01;102561.66;5042191;28;20520;-73
2022/08/06 01:41:38;;;;;;;7.95;2.63;;;;;;;13.01;73.66;102565.16;5036891;28;20068;-73
2022/08/06 01:44:01;;;;;;;6.88;2.92;;;;;;;13.08;73.17;102558.66;5027745;28;20112;-73
2022/08/06 01:46:27;;;;;;;8.70;2.75;;;;;;;13.01;73.78;102565.16;5039304;28;20086;-75
2022/08/06 01:48:53;;;;;;;8.30;2.78;;;;;;;13.19;72.84;102564.00;5041184;28;20025;-73
2022/08/06 01:51:19;;;;;;;8.90;2.72;;;;;;;13.12;72.94;102569.69;5012704;28;20044;-73
2022/08/06 01:53:45;;;;;;;8.02;3.00;;;;;;;13.07;73.57;102563.94;5023213;28;20021;-72
2022/08/06 01:56:11;;;;;;;8.98;2.72;;;;;;;13.10;73.65;102569.78;5043699;28;20029;-73
2022/08/06 01:58:42;;;;;;;7.68;2.78;;;;;;;13.19;72.81;102574.44;5040848;28;20017;-73
2022/08/06 02:01:11;;;;;;;7.43;2.97;;;;;;;12.96;73.50;102572.44;5042794;28;20035;-73
2022/08/06 02:03:45;;;;;;;10.68;3.38;;;;;;;13.09;73.36;102562.91;5038820;28;20037;-74
2022/08/06 02:06:20;;;;;;;7.22;2.60;;;;;;;12.95;74.20;102565.56;5042477;28;20499;-73
2022/08/06 02:08:46;;;;;;;11.00;3.13;;;;;;;13.12;73.47;102567.91;5045580;28;20131;-73
2022/08/06 02:11:12;;;;;;;5.38;2.70;;;;;;;13.12;73.13;102567.91;5045909;28;20025;-73
2022/08/06 02:13:40;;;;;;;6.60;2.63;;;;;;;13.13;73.59;102568.75;5041478;28;20465;-73
2022/08/06 02:16:07;;;;;;;6.72;2.50;;;;;;;12.96;73.89;102573.28;5045621;28;20020;-73
2022/08/06 02:18:37;;;;;;;8.85;3.05;;;;;;;12.99;74.49;102574.84;5047535;28;20032;-73
2022/08/06 02:21:07;;;;;;;6.63;3.05;;;;;;;12.96;74.55;102569.84;5040901;28;20041;-72
2022/08/06 02:23:34;;;;;;;8.63;3.00;;;;;;;12.79;74.51;102570.06;5041954;28;20032;-73
2022/08/06 02:26:02;;;;;;;8.82;3.50;;;;;;;12.79;74.51;102564.84;5011109;28;20405;-72
2022/08/06 02:28:29;;;;;;;8.20;3.10;;;;;;;12.79;75.42;102578.75;5039509;28;20036;-73
2022/08/06 02:30:57;;;;;;;8.60;3.00;;;;;;;12.66;74.77;102564.81;5043678;28;20063;-74
2022/08/06 02:33:23;;;;;;;8.83;3.20;;;;;;;12.88;74.79;102579.91;5047520;28;20135;-74
2022/08/06 02:35:53;;;;;;;7.63;3.00;;;;;;;12.80;74.92;102579.56;5046558;28;20029;-74
2022/08/06 02:38:21;;;;;;;7.32;2.95;;;;;;;12.81;74.91;102579.47;5036265;28;20021;-72
2022/08/06 02:40:54;;;;;;;9.10;3.30;;;;;;;12.71;74.65;102574.00;5038234;28;20035;-75
2022/08/06 02:43:27;;;;;;;5.78;2.88;;;;;;;12.74;74.97;102579.03;5042962;28;20040;-73
2022/08/06 02:46:14;;;;;;;6.72;2.80;;;;;;;12.89;74.98;102581.56;5033836;28;20036;-72
2022/08/06 02:48:51;;;;;;;7.25;2.90;;;;;;;12.83;75.13;102571.56;5047326;28;20025;-73
2022/08/06 02:51:39;;;;;;;7.65;3.05;;;;;;;12.79;75.07;102577.88;5043163;28;20033;-74
2022/08/06 02:54:13;;;;;;;9.52;3.22;;;;;;;12.68;75.95;102583.78;5042427;28;20146;-73
2022/08/06 02:56:44;;;;;;;8.32;3.35;;;;;;;12.74;75.06;102573.81;5044702;28;20107;-72
2022/08/06 02:59:12;;;;;;;8.15;3.28;;;;;;;12.74;75.73;102573.81;5043775;28;20021;-72
2022/08/06 03:01:52;;;;;;;8.63;3.35;;;;;;;12.70;75.53;102569.72;5045333;28;20099;-72
2022/08/06 03:04:22;;;;;;;6.40;2.95;;;;;;;12.82;74.96;102580.31;5039433;28;20032;-74
2022/08/06 03:06:48;;;;;;;7.82;3.28;;;;;;;12.79;75.46;102575.28;5029845;28;20025;-72
2022/08/06 03:09:16;;;;;;;7.65;2.90;;;;;;;12.85;76.04;102580.13;5037189;28;20456;-72
2022/08/06 03:11:45;;;;;;;8.48;3.30;;;;;;;12.69;75.92;102583.69;5038227;28;20416;-72
2022/08/06 03:14:14;;;;;;;7.80;3.05;;;;;;;12.62;75.71;102585.00;5028913;28;20147;-75
2022/08/06 03:16:41;;;;;;;8.10;3.15;;;;;;;12.51;76.66;102587.44;5026004;28;20120;-73
2022/08/06 03:19:08;;;;;;;10.20;3.03;;;;;;;12.46;77.04;102589.47;5038596;28;20481;-74
2022/08/06 03:21:35;;;;;;;7.97;3.00;;;;;;;12.45;77.21;102583.44;5038895;28;20044;-73
2022/08/06 03:24:02;;;;;;;9.48;3.10;;;;;;;12.39;76.72;102588.19;5019309;28;20048;-72
2022/08/06 03:26:29;;;;;;;6.55;2.97;;;;;;;12.41;77.25;102591.53;5038278;28;20450;-73
2022/08/06 03:28:56;;;;;;;7.80;3.22;;;;;;;12.33;77.59;102593.72;5036708;28;20123;-73
2022/08/06 03:31:26;;;;;;;8.45;3.50;;;;;;;12.29;77.72;102598.31;5042737;28;20028;-73
2022/08/06 03:33:53;;;;;;;8.77;3.50;;;;;;;12.26;77.76;102597.66;5041354;28;20028;-72
2022/08/06 03:36:20;;;;;;;8.32;3.40;;;;;;;12.19;77.52;102598.00;5037036;28;20025;-72
2022/08/06 03:38:55;;;;;;;6.90;3.30;;;;;;;12.08;79.13;102597.81;5039126;28;20127;-73
2022/08/06 03:41:23;;;;;;;10.30;3.50;;;;;;;11.97;78.59;102582.00;5018110;28;20059;-73
2022/08/06 03:43:49;;;;;;;10.02;3.53;;;;;;;11.98;78.70;102599.28;5038383;28;20060;-73
2022/08/06 03:46:21;;;;;;;9.50;3.80;;;;;;;11.91;78.93;102605.78;5026430;28;20053;-72
2022/08/06 03:48:47;;;;;;;7.07;3.45;;;;;;;11.89;78.75;102602.44;5038819;28;20087;-73
2022/08/06 03:51:19;;;;;;;9.68;4.30;;;;;;;11.87;79.41;102607.75;5032841;28;20116;-73
2022/08/06 03:53:47;;;;;;;8.90;3.97;;;;;;;11.90;79.71;102599.75;5026942;28;20037;-72
2022/08/06 03:56:18;;;;;;;9.63;3.70;;;;;;;11.83;78.87;102597.59;5035035;28;20082;-72
2022/08/06 03:58:46;;;;;;;8.52;3.78;;;;;;;11.89;80.04;102605.03;5031393;28;20025;-72
2022/08/06 04:01:15;;;;;;;7.63;3.63;;;;;;;11.97;79.39;102602.81;5043046;28;20032;-72
2022/08/06 04:03:44;;;;;;;9.63;4.25;;;;;;;11.76;80.12;102604.06;5027821;28;20025;-72
2022/08/06 04:06:11;;;;;;;8.48;4.60;;;;;;;11.81;80.67;102607.22;5032733;28;20054;-72
2022/08/06 04:08:39;;;;;;;7.10;3.85;;;;;;;11.88;79.09;102613.78;5038103;28;20055;-73
2022/08/06 04:11:05;;;;;;;8.50;3.78;;;;;;;11.87;79.51;102612.09;5040506;28;20449;-72
2022/08/06 04:13:31;;;;;;;10.60;4.25;;;;;;;11.91;80.29;102618.78;5041328;28;20124;-72
2022/08/06 04:15:57;;;;;;;7.55;4.05;;;;;;;12.01;80.16;102625.13;5035046;28;20548;-73
2022/08/06 04:18:30;;;;;;;9.88;4.30;;;;;;;11.90;80.87;102623.16;5033044;28;20507;-72
2022/08/06 04:21:08;;;;;;;10.40;4.13;;;;;;;12.08;80.07;102626.44;5040944;28;20456;-72
2022/08/06 04:23:33;;;;;;;8.13;4.07;;;;;;;12.10;79.97;102619.41;5033529;28;20107;-72
2022/08/06 04:26:02;;;;;;;9.45;4.28;;;;;;;11.99;80.43;102626.16;5020752;28;20017;-72
2022/08/06 04:28:30;;;;;;;7.82;4.18;;;;;;;12.00;79.86;102633.84;5039978;28;20468;-72
2022/08/06 04:30:59;;;;;;;9.15;4.40;;;;;;;11.89;80.59;102631.03;5043062;28;20071;-72
2022/08/06 04:33:26;;;;;;;10.63;4.50;;;;;;;11.86;80.62;102637.25;5041233;28;20040;-72
2022/08/06 04:35:52;;;;;;;8.65;4.60;;;;;;;11.92;80.49;102630.84;5044489;28;20033;-72
2022/08/06 04:38:21;;;;;;;9.65;4.40;;;;;;;11.96;80.59;102634.94;5036008;28;20025;-72
2022/08/06 04:40:48;;;;;;;8.88;4.03;;;;;;;12.04;80.12;102640.53;5034217;28;20025;-72
2022/08/06 04:43:15;;;;;;;9.73;4.43;;;;;;;12.02;80.88;102632.00;5042990;28;20029;-74
2022/08/06 04:45:42;;;;;;;10.35;4.72;;;;;;;11.89;81.39;102646.66;5040597;28;20471;-73
2022/08/06 04:48:11;;;;;;;9.63;4.95;;;;;;;11.99;81.38;102647.78;5037351;28;20025;-74
2022/08/06 04:50:38;;;;;;;9.65;5.05;;;;;;;12.04;81.08;102640.53;5038898;28;20067;-72
2022/08/06 04:53:06;;;;;;;10.52;4.88;;;;;;;12.12;80.42;102648.75;5037039;28;20032;-72
2022/08/06 04:55:32;;;;;;;12.77;5.60;;;;;;;12.12;80.86;102650.50;5020940;28;20035;-72
2022/08/06 04:57:58;;;;;;;9.82;5.00;;;;;;;12.07;80.74;102645.56;5037209;28;20107;-73
2022/08/06 05:00:25;;;;;;;7.93;5.13;;;;;;;12.12;80.49;102653.94;5037652;28;20036;-72
2022/08/06 05:02:50;;;;;;;9.38;5.35;;;;;;;12.25;80.40;102661.00;5038836;28;20070;-73
2022/08/06 05:05:19;;;;;;;9.73;5.43;;;;;;;12.22;80.27;102660.28;5041790;28;20071;-73
2022/08/06 05:07:45;;;;;;;;;;;;;;;12.44;78.95;102664.19;5041537;28;20029;-72
2022/08/06 05:10:10;;;;;;;11.65;5.50;;;;;;;12.32;80.65;102664.91;5031236;28;19966;-72
2022/08/06 05:12:44;;;;;;;9.73;5.18;;;;;;;12.34;80.60;102657.88;5049198;28;20056;-73
2022/08/06 05:15:18;;;;;;;9.70;5.50;;;;;;;12.36;80.49;102662.06;5049402;28;20059;-72
2022/08/06 05:17:53;;;;;;;12.60;5.53;;;;;;;12.47;80.55;102664.00;5030658;28;20467;-72
2022/08/06 05:20:20;;;;;;;11.95;5.57;;;;;;;12.51;80.85;102664.69;5048342;28;20469;-72
2022/08/06 05:22:52;;;;;;;10.52;5.45;;;;;;;12.55;80.37;102671.34;5049066;28;20041;-72
2022/08/06 05:25:18;;;;;;;12.35;5.80;;;;;;;12.50;80.52;102658.59;5047695;28;20104;-73
2022/08/06 05:27:43;;;;;;;12.10;6.07;;;;;;;12.58;80.45;102666.81;5047855;28;20139;-72
2022/08/06 05:30:09;;;;;;;9.48;5.38;;;;;;;12.59;80.53;102671.06;5028924;28;20029;-73
2022/08/06 05:32:46;;;;;;;11.43;5.28;;;;;;;12.66;80.05;102672.38;5030295;28;20934;-73
2022/08/06 05:35:12;;;;;;;9.43;5.15;;;;;;;12.71;80.53;102688.56;5031489;28;20040;-72
2022/08/06 05:37:38;;;;;;;9.27;5.00;;;;;;;12.81;80.05;102688.00;5036991;28;20041;-73
2022/08/06 05:40:05;;;;;;;11.38;5.38;;;;;;;12.85;80.47;102692.09;5046911;28;20074;-73
2022/08/06 05:42:30;;;;;;;10.75;5.45;;;;;;;12.87;80.12;102693.66;5037605;28;20033;-73
2022/08/06 05:44:56;;;;;;;13.45;5.60;;;;;;;12.92;80.23;102690.78;5042020;28;20027;-73
2022/08/06 05:47:26;;;;;;;12.10;5.45;;;;;;;13.02;79.77;102702.31;5034496;28;20047;-72
2022/08/06 05:50:13;;;;;;;10.13;5.28;;;;;;;13.03;79.55;102698.78;5044112;28;20025;-73
2022/08/06 05:53:09;;;;;;;10.70;5.50;;;;;;;13.13;79.64;102699.88;5045229;28;20531;-74
2022/08/06 05:55:41;;;;;;;10.68;5.65;;;;;;;13.19;79.61;102704.69;5035669;28;20024;-73
2022/08/06 05:58:14;;;;;;;10.52;5.05;;;;;;;13.25;79.90;102709.56;5038503;28;20047;-74
2022/08/06 06:00:40;;;;;;;10.50;5.40;;;;;;;13.24;79.80;102692.22;5036242;28;20025;-73
2022/08/06 06:03:11;;;;;;;10.40;5.50;;;;;;;13.39;79.21;102700.03;5015954;28;20504;-74
2022/08/06 06:05:37;;;;;;;11.68;5.30;;;;;;;13.45;79.56;102705.69;5046370;28;20079;-73
2022/08/06 06:08:06;;;;;;;10.90;5.38;;;;;;;13.49;79.30;102706.34;5041628;28;20461;-74
2022/08/06 06:10:33;;;;;;;12.55;4.97;;;;;;;13.53;78.29;102698.22;5031147;28;20437;-73
2022/08/06 06:13:00;;;;;;;7.82;4.55;;;;;;;13.69;78.04;102715.47;5038269;28;20063;-73
2022/08/06 06:15:26;;;;;;;8.32;4.38;;;;;;;13.76;77.94;102709.78;5038854;28;20029;-74
2022/08/06 06:18:07;;;;;;;9.48;4.88;;;;;;;13.81;78.39;102718.09;5032972;28;20099;-75
2022/08/06 06:20:56;;;;;;;9.07;4.72;;;;;;;13.94;77.95;102730.38;5039613;28;20056;-73
2022/08/06 06:23:44;;;;;;;9.60;4.78;;;;;;;14.04;77.46;102723.59;5036027;28;20056;-73
2022/08/06 06:26:15;;;;;;;8.32;4.43;;;;;;;14.14;76.96;102724.66;5040139;28;20057;-73
2022/08/06 06:29:09;;;;;;;9.90;5.05;;;;;;;14.16;77.03;102728.00;5037867;28;20165;-73
2022/08/06 06:31:56;;;;;;;10.30;4.75;;;;;;;14.31;76.20;102732.19;5023430;28;20525;-74
2022/08/06 06:34:33;;;;;;;11.07;4.97;;;;;;;14.39;76.36;102728.22;5026643;28;20563;-75
2022/08/06 06:37:38;;;;;;;9.07;4.40;;;;;;;14.44;76.79;102718.31;5032084;28;20053;-73
2022/08/06 06:40:17;;;;;;;7.43;3.53;;;;;;;14.52;74.57;102723.91;5006781;28;20080;-73
2022/08/06 06:42:56;;;;;;;10.63;4.10;;;;;;;14.51;74.91;102712.63;5033143;28;20060;-75
2022/08/06 06:45:50;;;;;;;8.65;4.18;;;;;;;14.63;75.22;102716.19;5033176;28;20025;-73
2022/08/06 06:48:21;;;;;;;7.70;4.15;;;;;;;14.70;74.46;102706.97;5021743;28;20048;-75
2022/08/06 06:50:52;;;;;;;10.05;5.05;;;;;;;14.78;74.62;102717.72;5043527;28;20055;-74
2022/08/06 06:53:19;;;;;;;10.57;5.07;;;;;;;14.90;74.02;102720.41;5038202;28;20037;-74
2022/08/06 06:55:49;;;;;;;10.05;4.68;;;;;;;14.95;73.92;102713.91;5043491;28;20039;-74
2022/08/06 06:58:21;;;;;;;8.48;4.07;;;;;;;14.98;72.96;102718.94;5041395;28;20025;-73
2022/08/06 07:00:47;;;;;;;9.43;4.93;;;;;;;15.04;74.02;102720.28;5044984;28;20029;-74
2022/08/06 07:03:16;;;;;;;10.18;4.70;;;;;;;15.13;73.43;102725.69;5041758;28;20108;-74
2022/08/06 07:05:45;;;;;;;7.53;3.70;;;;;;;15.23;72.97;102722.44;5044335;28;20032;-73
2022/08/06 07:08:14;;;;;;;8.70;3.15;;;;;;;15.29;72.17;102728.06;5024229;28;20049;-73
2022/08/06 07:10:42;;;;;;;6.90;2.67;;;;;;;15.27;71.59;102724.72;5039961;28;20029;-73
2022/08/06 07:13:10;;;;;;;6.93;2.57;;;;;;;15.35;71.36;102724.16;5043906;28;20037;-74
2022/08/06 07:15:36;;;;;;;7.63;2.78;;;;;;;15.40;71.41;102728.13;5033487;28;20458;-74
2022/08/06 07:18:04;;;;;;;7.43;2.70;;;;;;;15.55;71.79;102736.66;5043286;28;20032;-73
2022/08/06 07:20:31;;;;;;;5.50;2.30;;;;;;;15.54;70.75;102739.38;5045917;28;20024;-74
2022/08/06 07:23:03;;;;;;;7.15;2.47;;;;;;;15.64;70.64;102740.41;5029378;28;20026;-76
2022/08/06 07:25:29;;;;;;;8.77;2.35;;;;;;;15.71;70.51;102730.31;5037275;28;20067;-73
2022/08/06 07:27:55;;;;;;;7.78;2.20;;;;;;;15.80;70.71;102740.13;5027569;28;20477;-74
2022/08/06 07:30:22;;;;;;;5.90;1.75;;;;;;;15.91;70.18;102741.00;5041970;28;20028;-73
2022/08/06 07:32:49;;;;;;;7.57;2.00;;;;;;;16.00;69.04;102743.88;5032496;28;20112;-73
2022/08/06 07:35:19;;;;;;;4.88;1.60;;;;;;;16.04;68.23;102738.31;5025795;28;20058;-74
2022/08/06 07:37:54;;;;;;;5.82;1.85;;;;;;;16.13;68.45;102736.81;5041702;28;20461;-73
2022/08/06 07:40:32;;;;;;;6.07;1.20;;;;;;;16.27;67.48;102744.44;5041745;28;20108;-73
2022/08/06 07:43:08;;;;;;;2.65;0.90;;;;;;;16.22;64.74;102736.09;5037151;28;20067;-73
2022/08/06 07:45:34;;;;;;;3.33;0.95;;;;;;;16.34;63.18;102744.81;5045278;28;20039;-74
2022/08/06 07:48:06;;;;;;;4.15;1.20;;;;;;;16.34;63.57;102756.13;5040741;28;20100;-73
2022/08/06 07:50:32;;;;;;;3.72;1.10;;;;;;;16.42;63.43;102748.53;5017484;28;20029;-74
2022/08/06 07:52:59;;;;;;;4.70;0.90;;;;;;;16.43;62.44;102750.19;5031397;28;20372;-73
2022/08/06 07:55:26;;;;;;;4.90;1.00;;;;;;;16.53;62.35;102749.50;5041367;28;20101;-74
2022/08/06 07:57:54;;;;;;;3.17;0.90;;;;;;;16.56;63.28;102744.03;5040764;28;20036;-75
2022/08/06 08:00:22;;;;;;;4.28;1.15;;;;;;;16.72;62.20;102749.78;5040978;28;20032;-74
2022/08/06 08:08:18;;;;;;;4.00;1.10;;;;;;;16.91;59.48;102750.03;5043161;28;20036;-76
2022/08/06 08:10:44;;;;;;;3.95;1.05;;;;;;;16.95;60.80;102754.09;5041147;28;20025;-74
2022/08/06 08:13:11;;;;;;;5.10;1.23;;;;;;;16.99;59.94;102746.81;5033873;28;20083;-74
2022/08/06 08:15:37;;;;;;;4.90;0.85;;;;;;;17.05;60.92;102743.72;5024323;28;20424;-74
2022/08/06 08:18:03;;;;;;;4.70;1.00;;;;;;;17.26;60.95;102759.53;5031061;28;20490;-74
2022/08/06 08:20:31;;;;;;;3.30;0.90;;;;;;;17.35;60.61;102763.22;5032774;28;20039;-74
2022/08/06 08:22:56;;;;;;;5.15;1.00;;;;;;;17.33;58.43;102760.72;5046209;28;20412;-75
2022/08/06 08:25:22;;;;;;;6.28;1.30;;;;;;;17.41;59.36;102752.25;5027023;28;20064;-75
2022/08/06 08:27:47;;;;;;;4.72;1.17;;;;;;;17.41;59.25;102757.47;5040402;28;20124;-73
2022/08/06 08:30:13;;;;;;;3.25;0.80;;;;;;;17.61;58.76;102767.22;5039994;28;20044;-76
2022/08/06 08:32:38;;;;;;;8.25;1.13;;;;;;;17.69;58.07;102761.34;5039408;28;20586;-73
2022/08/06 08:35:04;;;;;;;4.57;1.20;;;;;;;17.79;58.89;102767.56;5039256;28;20490;-73
2022/08/06 08:37:29;;;;;;;4.03;1.00;;;;;;;17.71;57.76;102754.16;5035888;28;20037;-73
2022/08/06 08:39:55;;;;;;;3.47;1.00;;;;;;;17.78;57.16;102761.47;5026437;28;20029;-73
2022/08/06 08:42:47;;;;;;;5.18;1.05;;;;;;;18.00;59.10;102762.31;5047013;28;20067;-73
2022/08/06 08:45:13;;;;;;;4.55;1.08;;;;;;;17.99;54.75;102771.16;5048824;28;20041;-74
2022/08/06 08:47:45;;;;;;;4.75;0.90;;;;;;;18.20;57.33;102765.94;5044456;28;20079;-73
2022/08/06 08:50:11;;;;;;;2.80;0.82;;;;;;;18.21;55.73;102773.69;5034742;28;20039;-73
2022/08/06 08:52:39;;;;;;;5.50;0.98;;;;;;;18.28;54.24;102779.25;5032199;28;20096;-73
2022/08/06 08:55:08;;;;;;;4.05;0.93;;;;;;;18.34;54.19;102773.47;5031202;28;20032;-74
2022/08/06 08:57:35;;;;;;;3.90;0.82;;;;;;;18.41;53.98;102779.03;5032589;28;20493;-73
2022/08/06 09:00:02;;;;;;;3.45;0.95;;;;;;;18.26;51.63;102765.41;5031969;28;20032;-73
2022/08/06 09:02:29;;;;;;;3.45;0.75;;;;;;;18.34;53.02;102773.47;5035459;28;20038;-73
2022/08/06 09:04:55;;;;;;;5.43;1.00;;;;;;;18.48;53.39;102767.91;5034205;28;20419;-73
2022/08/06 09:07:20;;;;;;;4.45;0.82;;;;;;;18.76;52.67;102769.06;5035719;28;20021;-73
2022/08/06 09:09:46;;;;;;;4.45;0.95;;;;;;;18.74;53.45;102773.59;5031246;28;20914;-73
2022/08/06 09:12:12;;;;;;;2.50;0.80;;;;;;;18.60;51.29;102770.47;5023987;28;20457;-73
2022/08/06 09:14:37;;;;;;;3.47;0.90;;;;;;;18.86;52.40;102779.59;5048736;28;20024;-72
2022/08/06 09:17:04;;;;;;;3.22;0.90;;;;;;;18.70;51.92;102779.28;5048828;28;20037;-74
2022/08/06 09:19:30;;;;;;;3.25;0.93;;;;;;;18.65;51.78;102781.44;5041912;28;20083;-75
2022/08/06 09:21:59;;;;;;;1.60;0.70;;;;;;;18.52;49.78;102782.47;5045369;28;20485;-73
2022/08/06 09:24:26;;;;;;;3.67;1.02;;;;;;;18.54;47.82;102783.16;5040479;28;20029;-73
2022/08/06 09:27:05;;;;;;;3.70;0.90;;;;;;;18.75;50.10;102792.84;5042186;28;20397;-72
2022/08/06 09:29:31;;;;;;;4.07;1.00;;;;;;;18.80;49.13;102782.75;5044393;28;20033;-73
2022/08/06 09:31:57;;;;;;;2.53;0.80;;;;;;;18.94;48.64;102785.06;5044984;28;20021;-73
2022/08/06 09:34:31;;;;;;;2.38;0.90;;;;;;;19.11;49.90;102780.97;5048702;28;20033;-72
2022/08/06 09:36:57;;;;;;;3.17;1.13;;;;;;;19.10;50.23;102782.75;5038522;28;20530;-74
2022/08/06 09:39:40;;;;;;;4.57;1.13;;;;;;;19.22;49.49;102790.56;5038222;28;20025;-73
2022/08/06 09:42:06;;;;;;;2.42;0.65;;;;;;;19.05;47.49;102794.66;5028813;28;20041;-74
2022/08/06 09:44:32;;;;;;;2.75;0.90;;;;;;;19.47;49.74;102784.78;5022824;28;20453;-73
2022/08/06 09:46:59;;;;;;;2.17;0.90;;;;;;;19.41;46.83;102780.06;5029846;28;20033;-73
2022/08/06 09:49:26;;;;;;;2.73;0.70;;;;;;;19.46;47.30;102787.56;5039397;28;20039;-73
2022/08/06 09:52:10;;;;;;;2.25;0.88;;;;;;;19.55;47.55;102792.81;5042717;28;20404;-73
2022/08/06 09:54:36;;;;;;;2.22;0.80;;;;;;;19.50;46.01;102784.53;5013865;28;20040;-74
2022/08/06 09:57:02;;;;;;;4.47;0.77;;;;;;;19.67;46.77;102782.19;5036094;28;20128;-73
2022/08/06 09:59:27;;;;;;;2.55;0.75;;;;;;;19.87;46.88;102786.53;5037413;28;20108;-73
2022/08/06 10:01:53;;;;;;;2.08;0.90;;;;;;;19.87;46.45;102786.53;5030298;28;20040;-75
2022/08/06 10:04:27;;;;;;;3.25;1.00;;;;;;;20.21;47.88;102788.72;5044705;28;20029;-73
2022/08/06 10:06:57;;;;;;;2.30;0.70;;;;;;;20.17;45.68;102791.63;5046113;28;20041;-74
2022/08/06 10:09:24;;;;;;;4.15;1.10;;;;;;;20.04;44.52;102783.19;5047080;28;20335;-73
2022/08/06 10:11:49;;;;;;;2.45;0.95;;;;;;;20.30;45.38;102787.88;5048239;28;20029;-73
2022/08/06 10:14:28;;;;;;;2.25;0.82;;;;;;;20.47;47.43;102779.25;5046703;28;20056;-74
2022/08/06 10:17:11;;;;;;;2.92;0.88;;;;;;;20.71;45.97;102781.44;5036475;28;20082;-74
2022/08/06 10:19:39;;;;;;;2.47;0.88;;;;;;;20.78;45.42;102781.69;5046758;28;20061;-73
2022/08/06 10:22:18;;;;;;;3.15;0.98;;;;;;;20.86;46.20;102782.59;5048318;28;20104;-73
2022/08/06 10:24:50;;;;;;;3.50;0.90;;;;;;;20.75;44.96;102781.97;5047841;28;20036;-74
2022/08/06 10:27:19;;;;;;;2.92;0.90;;;;;;;20.83;45.80;102774.19;5046972;28;20045;-73
2022/08/06 10:29:52;;;;;;;2.65;1.00;;;;;;;21.10;45.40;102776.81;5039901;28;20472;-73
2022/08/06 10:32:29;;;;;;;4.05;1.25;;;;;;;21.06;44.75;102774.63;5047566;28;20031;-74
2022/08/06 10:34:57;;;;;;;2.72;0.90;;;;;;;21.04;43.81;102774.75;5030113;28;20038;-73
2022/08/06 10:37:23;;;;;;;3.17;0.97;;;;;;;20.88;42.58;102777.22;5040183;28;20036;-73
2022/08/06 10:39:54;;;;;;;3.92;1.00;;;;;;;21.10;42.25;102771.53;5046788;28;20024;-74
2022/08/06 10:42:20;;;;;;;1.52;0.65;;;;;;;21.41;42.88;102764.16;5044222;28;20025;-73
2022/08/06 10:44:47;;;;;;;2.08;0.90;;;;;;;21.64;41.77;102764.56;5040122;28;20032;-75
2022/08/06 10:47:13;;;;;;;3.38;0.90;;;;;;;21.32;42.40;102748.38;5018488;28;20496;-74
2022/08/06 10:49:39;;;;;;;2.88;0.80;;;;;;;21.48;43.25;102753.84;5043592;28;20025;-73
2022/08/06 10:52:05;;;;;;;3.13;0.80;;;;;;;21.47;42.53;102752.19;5046869;28;20060;-74
2022/08/06 10:54:31;;;;;;;3.85;0.85;;;;;;;21.63;43.06;102762.91;5046064;28;20087;-74
2022/08/06 10:56:57;;;;;;;1.77;0.80;;;;;;;21.55;40.93;102754.88;5029188;28;20073;-73
2022/08/06 10:59:23;;;;;;;3.42;0.93;;;;;;;21.88;42.51;102750.72;5046921;28;20465;-74
2022/08/06 11:02:24;;;;;;;3.05;0.85;;;;;;;21.96;42.90;102748.16;5047169;28;20040;-73
2022/08/06 11:04:49;;;;;;;1.95;0.80;;;;;;;22.25;42.03;102755.84;5040841;28;20040;-74
2022/08/06 11:07:27;;;;;;;3.60;1.00;;;;;;;22.11;41.67;102752.91;5028162;28;20025;-74
2022/08/06 11:10:32;;;;;;;3.55;0.90;;;;;;;22.02;40.06;102762.53;5044735;28;20057;-73
2022/08/06 11:13:19;;;;;;;2.92;1.00;;;;;;;21.59;43.16;102756.25;4938565;28;20036;-73
2022/08/06 11:15:44;;;;;;;2.72;0.93;;;;;;;21.14;40.23;102750.97;4936419;28;20048;-74
2022/08/06 11:18:11;;;;;;;3.08;0.90;;;;;;;21.06;42.15;102749.06;4939518;28;20031;-74
2022/08/06 11:20:47;;;;;;;3.08;0.90;;;;;;;20.97;42.51;102749.94;4937506;28;20051;-76
2022/08/06 11:23:13;;;;;;;3.25;1.00;;;;;;;21.06;40.63;102756.16;4940052;28;20450;-74
2022/08/06 11:25:38;;;;;;;2.58;0.88;;;;;;;21.60;41.74;102747.34;4928305;29;20074;-75
2022/08/06 11:28:04;;;;;;;2.90;1.00;;;;;;;21.55;40.96;102746.97;4945002;28;20550;-74
2022/08/06 11:30:43;;;;;;;2.45;0.90;;;;;;;22.03;40.62;102751.03;4944678;28;20110;-74
2022/08/06 11:33:10;;;;;;;4.40;1.00;;;;;;;21.74;39.70;102749.47;4928471;29;20035;-74
2022/08/06 11:35:35;;;;;;;2.38;0.80;;;;;;;22.11;41.04;102745.81;4941352;28;20107;-74
2022/08/06 11:38:06;;;;;;;3.08;0.90;;;;;;;21.86;39.61;102744.78;4943902;28;20146;-75
2022/08/06 11:40:57;;;;;;;3.80;1.10;;;;;;;21.87;40.25;102737.69;4936257;28;20495;-74
2022/08/06 11:43:44;;;;;;;2.63;0.90;;;;;;;22.32;41.24;102731.41;4939008;29;20479;-75